sensor_id;sensor_type;location;lat;lon;timestamp;pressure;altitude;pressure_sealevel;temperature;humidity
5609;BME280;2826;51.354;9.588;2023-01-28T00:00:30;99109.31;;;1.37;84.61
5609;BME280;2826;51.354;9.588;2023-01-28T00:02:58;99116.16;;;1.40;84.86
5609;BME280;2826;51.354;9.588;2023-01-28T00:05:25;99116.19;;;1.43;84.61
5609;BME280;2826;51.354;9.588;2023-01-28T00:07:54;99123.00;;;1.42;84.59
5609;BME280;2826;51.354;9.588;2023-01-28T00:10:21;99121.28;;;1.41;84.80
5609;BME280;2826;51.354;9.588;2023-01-28T00:12:47;99110.25;;;1.44;84.59
5609;BME280;2826;51.354;9.588;2023-01-28T00:15:15;99111.09;;;1.43;84.44
5609;BME280;2826;51.354;9.588;2023-01-28T00:17:42;99103.41;;;1.41;84.31
5609;BME280;2826;51.354;9.588;2023-01-28T00:20:11;99102.47;;;1.35;84.49
5609;BME280;2826;51.354;9.588;2023-01-28T00:22:37;99095.69;;;1.37;84.59
5609;BME280;2826;51.354;9.588;2023-01-28T00:25:04;99038.16;;;1.02;84.60
5609;BME280;2826;51.354;9.588;2023-01-28T00:27:31;99088.81;;;1.34;84.49
5609;BME280;2826;51.354;9.588;2023-01-28T00:29:57;99094.75;;;1.33;84.52
5609;BME280;2826;51.354;9.588;2023-01-28T00:32:24;99083.66;;;1.29;84.30
5609;BME280;2826;51.354;9.588;2023-01-28T00:34:51;99094.63;;;1.22;84.79
5609;BME280;2826;51.354;9.588;2023-01-28T00:37:19;99080.13;;;1.21;84.51
5609;BME280;2826;51.354;9.588;2023-01-28T00:39:46;99090.34;;;1.21;84.63
5609;BME280;2826;51.354;9.588;2023-01-28T00:42:12;99094.53;;;1.14;84.79
5609;BME280;2826;51.354;9.588;2023-01-28T00:44:39;99098.75;;;1.11;85.02
5609;BME280;2826;51.354;9.588;2023-01-28T00:47:05;99087.66;;;1.10;84.74
5609;BME280;2826;51.354;9.588;2023-01-28T00:49:32;99091.00;;;1.06;85.30
5609;BME280;2826;51.354;9.588;2023-01-28T00:52:00;99090.09;;;1.01;85.63
5609;BME280;2826;51.354;9.588;2023-01-28T00:54:28;99089.41;;;1.14;84.98
5609;BME280;2826;51.354;9.588;2023-01-28T00:56:58;99088.69;;;1.22;84.59
5609;BME280;2826;51.354;9.588;2023-01-28T00:59:25;99092.06;;;1.19;84.44
5609;BME280;2826;51.354;9.588;2023-01-28T01:01:52;99092.88;;;1.18;84.39
5609;BME280;2826;51.354;9.588;2023-01-28T01:04:19;99097.06;;;1.13;84.57
5609;BME280;2826;51.354;9.588;2023-01-28T01:06:51;99097.97;;;1.15;84.59
5609;BME280;2826;51.354;9.588;2023-01-28T01:09:18;99096.22;;;1.14;84.36
5609;BME280;2826;51.354;9.588;2023-01-28T01:11:48;99084.16;;;1.03;84.51
5609;BME280;2826;51.354;9.588;2023-01-28T01:14:14;99088.28;;;0.94;85.72
5609;BME280;2826;51.354;9.588;2023-01-28T01:16:41;99089.22;;;1.00;85.12
5609;BME280;2826;51.354;9.588;2023-01-28T01:19:08;99095.16;;;0.98;85.49
5609;BME280;2826;51.354;9.588;2023-01-28T01:21:34;99093.50;;;1.00;85.15
5609;BME280;2826;51.354;9.588;2023-01-28T01:24:01;99090.97;;;1.01;85.05
5609;BME280;2826;51.354;9.588;2023-01-28T01:26:28;99099.31;;;0.91;85.21
5609;BME280;2826;51.354;9.588;2023-01-28T01:28:57;99106.03;;;0.86;85.47
5609;BME280;2826;51.354;9.588;2023-01-28T01:31:24;99102.59;;;0.82;85.63
5609;BME280;2826;51.354;9.588;2023-01-28T01:33:51;99111.91;;;0.78;85.64
5609;BME280;2826;51.354;9.588;2023-01-28T01:36:18;99108.44;;;0.75;85.46
5609;BME280;2826;51.354;9.588;2023-01-28T01:38:46;99110.13;;;0.73;85.85
5609;BME280;2826;51.354;9.588;2023-01-28T01:41:22;99109.25;;;0.72;86.10
5609;BME280;2826;51.354;9.588;2023-01-28T01:43:51;99102.50;;;0.77;86.08
5609;BME280;2826;51.354;9.588;2023-01-28T01:46:22;99103.31;;;0.73;86.40
5609;BME280;2826;51.354;9.588;2023-01-28T01:48:52;99113.50;;;0.70;86.56
5609;BME280;2826;51.354;9.588;2023-01-28T01:51:24;99103.19;;;0.65;86.84
5609;BME280;2826;51.354;9.588;2023-01-28T01:53:55;99105.84;;;0.73;86.76
5609;BME280;2826;51.354;9.588;2023-01-28T01:56:26;99104.09;;;0.69;87.35
5609;BME280;2826;51.354;9.588;2023-01-28T01:58:55;99109.28;;;0.74;87.20
5609;BME280;2826;51.354;9.588;2023-01-28T02:01:26;99102.50;;;0.77;86.98
5609;BME280;2826;51.354;9.588;2023-01-28T02:04:00;99105.97;;;0.80;86.92
5609;BME280;2826;51.354;9.588;2023-01-28T02:06:30;99112.78;;;0.81;86.71
5609;BME280;2826;51.354;9.588;2023-01-28T02:08:57;99113.66;;;0.83;86.82
5609;BME280;2826;51.354;9.588;2023-01-28T02:11:24;99114.56;;;0.85;86.54
5609;BME280;2826;51.354;9.588;2023-01-28T02:13:54;99092.28;;;0.76;86.47
5609;BME280;2826;51.354;9.588;2023-01-28T02:16:23;99111.22;;;0.89;86.61
5609;BME280;2826;51.354;9.588;2023-01-28T02:18:50;99117.22;;;0.93;86.17
5609;BME280;2826;51.354;9.588;2023-01-28T02:21:52;99117.22;;;0.93;86.09
5609;BME280;2826;51.354;9.588;2023-01-28T02:24:40;99120.72;;;0.99;85.95
5609;BME280;2826;51.354;9.588;2023-01-28T02:27:23;99124.19;;;1.03;85.87
5609;BME280;2826;51.354;9.588;2023-01-28T02:29:58;99122.44;;;1.02;85.87
5609;BME280;2826;51.354;9.588;2023-01-28T02:32:35;99102.69;;;0.88;85.95
5609;BME280;2826;51.354;9.588;2023-01-28T02:35:06;99137.03;;;1.09;85.96
5609;BME280;2826;51.354;9.588;2023-01-28T02:37:39;99126.78;;;1.08;86.03
5609;BME280;2826;51.354;9.588;2023-01-28T02:40:10;99129.34;;;1.08;86.10
5609;BME280;2826;51.354;9.588;2023-01-28T02:42:38;99134.47;;;1.08;86.18
5609;BME280;2826;51.354;9.588;2023-01-28T02:45:15;99137.91;;;1.11;86.13
5609;BME280;2826;51.354;9.588;2023-01-28T02:47:44;99135.41;;;1.14;86.05
5609;BME280;2826;51.354;9.588;2023-01-28T02:50:26;99138.81;;;1.13;86.04
5609;BME280;2826;51.354;9.588;2023-01-28T02:53:04;99147.31;;;1.12;85.81
5609;BME280;2826;51.354;9.588;2023-01-28T02:55:56;99153.22;;;1.11;86.09
5609;BME280;2826;51.354;9.588;2023-01-28T02:58:34;99152.41;;;1.14;86.22
5609;BME280;2826;51.354;9.588;2023-01-28T03:01:08;99157.56;;;1.15;85.83
5609;BME280;2826;51.354;9.588;2023-01-28T03:03:42;99156.72;;;1.15;85.69
5609;BME280;2826;51.354;9.588;2023-01-28T03:06:13;99150.75;;;1.16;85.59
5609;BME280;2826;51.354;9.588;2023-01-28T03:08:45;99150.78;;;1.17;85.27
5609;BME280;2826;51.354;9.588;2023-01-28T03:11:33;99158.47;;;1.19;85.36
5609;BME280;2826;51.354;9.588;2023-01-28T03:14:19;99151.66;;;1.20;85.10
5609;BME280;2826;51.354;9.588;2023-01-28T03:17:11;99156.78;;;1.21;85.08
5609;BME280;2826;51.354;9.588;2023-01-28T03:19:58;99156.81;;;1.23;85.12
5609;BME280;2826;51.354;9.588;2023-01-28T03:22:45;99147.38;;;1.19;85.12
5609;BME280;2826;51.354;9.588;2023-01-28T03:25:32;99152.56;;;1.22;85.03
5609;BME280;2826;51.354;9.588;2023-01-28T03:28:19;99158.50;;;1.22;85.22
5609;BME280;2826;51.354;9.588;2023-01-28T03:31:07;99087.25;;;0.81;84.92
5609;BME280;2826;51.354;9.588;2023-01-28T03:33:57;99158.56;;;1.25;85.06
5609;BME280;2826;51.354;9.588;2023-01-28T03:36:43;99161.09;;;1.25;84.79
5609;BME280;2826;51.354;9.588;2023-01-28T03:39:41;99162.81;;;1.23;84.71
5609;BME280;2826;51.354;9.588;2023-01-28T03:42:11;99161.09;;;1.24;84.60
5609;BME280;2826;51.354;9.588;2023-01-28T03:44:49;99166.16;;;1.22;84.40
5609;BME280;2826;51.354;9.588;2023-01-28T03:47:18;99172.06;;;1.18;84.26
5609;BME280;2826;51.354;9.588;2023-01-28T03:49:48;99171.19;;;1.16;84.44
5609;BME280;2826;51.354;9.588;2023-01-28T03:52:20;99176.22;;;1.11;83.94
5609;BME280;2826;51.354;9.588;2023-01-28T03:54:47;99167.63;;;1.04;83.61
5609;BME280;2826;51.354;9.588;2023-01-28T03:57:16;99166.78;;;1.07;83.29
5609;BME280;2826;51.354;9.588;2023-01-28T03:59:42;99168.53;;;1.08;83.05
5609;BME280;2826;51.354;9.588;2023-01-28T04:02:11;99159.94;;;1.04;82.38
5609;BME280;2826;51.354;9.588;2023-01-28T04:04:38;99167.59;;;1.01;82.35
5609;BME280;2826;51.354;9.588;2023-01-28T04:07:08;99163.28;;;0.97;82.04
5609;BME280;2826;51.354;9.588;2023-01-28T04:09:54;99162.44;;;1.00;81.44
5609;BME280;2826;51.354;9.588;2023-01-28T04:12:45;99160.75;;;0.99;81.74
5609;BME280;2826;51.354;9.588;2023-01-28T04:15:14;99164.16;;;1.01;81.25
5609;BME280;2826;51.354;9.588;2023-01-28T04:17:43;99176.97;;;1.02;81.29
5609;BME280;2826;51.354;9.588;2023-01-28T04:20:14;99169.34;;;1.06;81.26
5609;BME280;2826;51.354;9.588;2023-01-28T04:22:42;99166.00;;;1.11;80.87
5609;BME280;2826;51.354;9.588;2023-01-28T04:25:10;99169.50;;;1.15;80.57
5609;BME280;2826;51.354;9.588;2023-01-28T04:27:37;99166.97;;;1.18;80.55
5609;BME280;2826;51.354;9.588;2023-01-28T04:30:13;99161.88;;;1.20;80.57
5609;BME280;2826;51.354;9.588;2023-01-28T04:32:47;99166.13;;;1.17;80.59
5609;BME280;2826;51.354;9.588;2023-01-28T04:35:28;99165.25;;;1.17;80.83
5609;BME280;2826;51.354;9.588;2023-01-28T04:38:13;99160.97;;;1.16;80.53
5609;BME280;2826;51.354;9.588;2023-01-28T04:40:59;99167.81;;;1.19;80.41
5609;BME280;2826;51.354;9.588;2023-01-28T04:43:29;99162.72;;;1.19;80.68
5609;BME280;2826;51.354;9.588;2023-01-28T04:46:15;99162.69;;;1.17;80.52
5609;BME280;2826;51.354;9.588;2023-01-28T04:48:54;99154.03;;;1.07;79.48
5609;BME280;2826;51.354;9.588;2023-01-28T04:51:40;99160.88;;;1.08;78.18
5609;BME280;2826;51.354;9.588;2023-01-28T04:54:26;99157.41;;;1.03;77.75
5609;BME280;2826;51.354;9.588;2023-01-28T04:56:56;99164.28;;;1.10;78.08
5609;BME280;2826;51.354;9.588;2023-01-28T04:59:23;99167.72;;;1.11;78.00
5609;BME280;2826;51.354;9.588;2023-01-28T05:01:50;99169.44;;;1.12;77.24
5609;BME280;2826;51.354;9.588;2023-01-28T05:04:17;99166.91;;;1.13;77.17
5609;BME280;2826;51.354;9.588;2023-01-28T05:06:45;99175.34;;;1.09;77.18
5609;BME280;2826;51.354;9.588;2023-01-28T05:09:26;99171.06;;;1.07;76.10
5609;BME280;2826;51.354;9.588;2023-01-28T05:11:52;99174.63;;;1.16;76.52
5609;BME280;2826;51.354;9.588;2023-01-28T05:14:19;99177.16;;;1.15;74.47
5609;BME280;2826;51.354;9.588;2023-01-28T05:16:57;99176.19;;;1.07;74.98
5609;BME280;2826;51.354;9.588;2023-01-28T05:19:23;99173.63;;;1.07;75.40
5609;BME280;2826;51.354;9.588;2023-01-28T05:21:50;99178.72;;;1.07;74.28
5609;BME280;2826;51.354;9.588;2023-01-28T05:24:25;99180.38;;;1.03;74.02
5609;BME280;2826;51.354;9.588;2023-01-28T05:26:52;99183.75;;;1.02;74.50
5609;BME280;2826;51.354;9.588;2023-01-28T05:29:19;99190.50;;;0.97;74.76
5609;BME280;2826;51.354;9.588;2023-01-28T05:31:46;99187.13;;;0.99;75.02
5609;BME280;2826;51.354;9.588;2023-01-28T05:34:13;99182.00;;;0.98;75.38
5609;BME280;2826;51.354;9.588;2023-01-28T05:36:40;99183.69;;;0.97;75.33
5609;BME280;2826;51.354;9.588;2023-01-28T05:39:23;99187.03;;;0.93;74.85
5609;BME280;2826;51.354;9.588;2023-01-28T05:41:51;99175.22;;;1.00;74.92
5609;BME280;2826;51.354;9.588;2023-01-28T05:44:18;99183.72;;;0.99;75.28
5609;BME280;2826;51.354;9.588;2023-01-28T05:46:58;99184.59;;;1.01;75.21
5609;BME280;2826;51.354;9.588;2023-01-28T05:49:43;99184.59;;;1.01;75.40
5609;BME280;2826;51.354;9.588;2023-01-28T05:52:29;99185.50;;;1.03;75.78
5609;BME280;2826;51.354;9.588;2023-01-28T05:54:56;99187.06;;;0.96;75.81
5609;BME280;2826;51.354;9.588;2023-01-28T05:57:25;99191.34;;;0.96;74.94
5609;BME280;2826;51.354;9.588;2023-01-28T05:59:52;99198.19;;;0.98;75.05
5609;BME280;2826;51.354;9.588;2023-01-28T06:02:19;99204.94;;;0.96;74.65
5609;BME280;2826;51.354;9.588;2023-01-28T06:04:46;99168.84;;;0.73;74.22
5609;BME280;2826;51.354;9.588;2023-01-28T06:07:13;99200.66;;;0.92;74.53
5609;BME280;2826;51.354;9.588;2023-01-28T06:09:45;99200.59;;;0.89;74.15
5609;BME280;2826;51.354;9.588;2023-01-28T06:12:14;99203.16;;;0.89;74.43
5609;BME280;2826;51.354;9.588;2023-01-28T06:14:55;99213.38;;;0.90;74.81
5609;BME280;2826;51.354;9.588;2023-01-28T06:17:45;99210.91;;;0.95;74.43
5609;BME280;2826;51.354;9.588;2023-01-28T06:20:21;99207.47;;;0.93;74.19
5609;BME280;2826;51.354;9.588;2023-01-28T06:22:50;99211.69;;;0.91;73.80
5609;BME280;2826;51.354;9.588;2023-01-28T06:25:17;99221.09;;;0.94;73.82
5609;BME280;2826;51.354;9.588;2023-01-28T06:27:43;99220.28;;;0.95;74.08
5609;BME280;2826;51.354;9.588;2023-01-28T06:30:12;99219.25;;;0.85;72.98
5609;BME280;2826;51.354;9.588;2023-01-28T06:32:39;99220.94;;;0.84;73.43
5609;BME280;2826;51.354;9.588;2023-01-28T06:35:06;99217.56;;;0.85;73.39
5609;BME280;2826;51.354;9.588;2023-01-28T06:37:33;99217.53;;;0.84;72.86
5609;BME280;2826;51.354;9.588;2023-01-28T06:39:59;99226.94;;;0.86;73.31
5609;BME280;2826;51.354;9.588;2023-01-28T06:42:26;99232.06;;;0.88;72.95
5609;BME280;2826;51.354;9.588;2023-01-28T06:44:52;99227.84;;;0.90;72.88
5609;BME280;2826;51.354;9.588;2023-01-28T06:47:20;99236.25;;;0.84;71.75
5609;BME280;2826;51.354;9.588;2023-01-28T06:49:47;99236.19;;;0.80;71.66
5609;BME280;2826;51.354;9.588;2023-01-28T06:52:13;99234.34;;;0.72;72.40
5609;BME280;2826;51.354;9.588;2023-01-28T06:54:40;99236.88;;;0.71;72.83
5609;BME280;2826;51.354;9.588;2023-01-28T06:57:06;99235.22;;;0.73;72.48
5609;BME280;2826;51.354;9.588;2023-01-28T06:59:33;99231.94;;;0.78;72.79
5609;BME280;2826;51.354;9.588;2023-01-28T07:01:59;99233.59;;;0.78;72.46
5609;BME280;2826;51.354;9.588;2023-01-28T07:04:27;99241.19;;;0.75;72.46
5609;BME280;2826;51.354;9.588;2023-01-28T07:06:54;99244.69;;;0.78;72.29
5609;BME280;2826;51.354;9.588;2023-01-28T07:09:20;99243.88;;;0.81;71.83
5609;BME280;2826;51.354;9.588;2023-01-28T07:11:47;99241.31;;;0.81;72.13
5609;BME280;2826;51.354;9.588;2023-01-28T07:14:13;99239.69;;;0.85;71.86
5609;BME280;2826;51.354;9.588;2023-01-28T07:16:40;99238.84;;;0.86;71.87
5609;BME280;2826;51.354;9.588;2023-01-28T07:19:06;99241.38;;;0.86;72.23
5609;BME280;2826;51.354;9.588;2023-01-28T07:21:35;99241.31;;;0.83;72.36
5609;BME280;2826;51.354;9.588;2023-01-28T07:24:02;99247.34;;;0.85;72.27
5609;BME280;2826;51.354;9.588;2023-01-28T07:26:30;99243.94;;;0.86;72.41
5609;BME280;2826;51.354;9.588;2023-01-28T07:28:56;99241.38;;;0.86;72.17
5609;BME280;2826;51.354;9.588;2023-01-28T07:31:23;99244.81;;;0.86;71.93
5609;BME280;2826;51.354;9.588;2023-01-28T07:33:49;99244.81;;;0.86;72.42
5609;BME280;2826;51.354;9.588;2023-01-28T07:36:16;99245.59;;;0.82;71.90
5609;BME280;2826;51.354;9.588;2023-01-28T07:38:44;99242.94;;;0.77;69.71
5609;BME280;2826;51.354;9.588;2023-01-28T07:41:10;99238.75;;;0.80;70.77
5609;BME280;2826;51.354;9.588;2023-01-28T07:43:37;99231.97;;;0.83;70.77
5609;BME280;2826;51.354;9.588;2023-01-28T07:46:03;99240.56;;;0.87;70.46
5609;BME280;2826;51.354;9.588;2023-01-28T07:48:30;99233.75;;;0.87;70.77
5609;BME280;2826;51.354;9.588;2023-01-28T07:50:57;99237.19;;;0.89;70.55
5609;BME280;2826;51.354;9.588;2023-01-28T07:53:24;99227.94;;;0.96;70.88
5609;BME280;2826;51.354;9.588;2023-01-28T07:55:57;99233.16;;;1.02;70.85
5609;BME280;2826;51.354;9.588;2023-01-28T07:58:24;99234.97;;;1.08;70.86
5609;BME280;2826;51.354;9.588;2023-01-28T08:00:55;99244.38;;;1.14;71.36
5609;BME280;2826;51.354;9.588;2023-01-28T08:03:22;99249.53;;;1.15;71.23
5609;BME280;2826;51.354;9.588;2023-01-28T08:05:50;99228.84;;;0.98;70.76
5609;BME280;2826;51.354;9.588;2023-01-28T08:08:18;99246.94;;;1.14;70.57
5609;BME280;2826;51.354;9.588;2023-01-28T08:10:45;99244.41;;;1.12;69.95
5609;BME280;2826;51.354;9.588;2023-01-28T08:13:13;99251.28;;;1.16;70.49
5609;BME280;2826;51.354;9.588;2023-01-28T08:15:40;99241.03;;;1.15;70.08
5609;BME280;2826;51.354;9.588;2023-01-28T08:18:08;99247.94;;;1.22;69.82
5609;BME280;2826;51.354;9.588;2023-01-28T08:20:37;99240.22;;;1.17;69.87
5609;BME280;2826;51.354;9.588;2023-01-28T08:23:06;99253.13;;;1.27;69.57
5609;BME280;2826;51.354;9.588;2023-01-28T08:25:33;99254.88;;;1.29;69.29
5609;BME280;2826;51.354;9.588;2023-01-28T08:28:00;99248.06;;;1.30;69.16
5609;BME280;2826;51.354;9.588;2023-01-28T08:30:28;99254.94;;;1.36;69.01
5609;BME280;2826;51.354;9.588;2023-01-28T08:32:55;99251.56;;;1.38;68.80
5609;BME280;2826;51.354;9.588;2023-01-28T08:35:22;99260.19;;;1.43;68.43
5609;BME280;2826;51.354;9.588;2023-01-28T08:37:49;99255.22;;;1.53;68.44
5609;BME280;2826;51.354;9.588;2023-01-28T08:40:16;99256.97;;;1.59;67.59
5609;BME280;2826;51.354;9.588;2023-01-28T08:42:46;99266.41;;;1.63;67.48
5609;BME280;2826;51.354;9.588;2023-01-28T08:45:12;99262.31;;;1.73;67.72
5609;BME280;2826;51.354;9.588;2023-01-28T08:47:48;99255.47;;;1.72;66.32
5609;BME280;2826;51.354;9.588;2023-01-28T08:50:15;99253.88;;;1.78;66.86
5609;BME280;2826;51.354;9.588;2023-01-28T08:52:42;99259.81;;;1.77;66.73
5609;BME280;2826;51.354;9.588;2023-01-28T08:55:09;99267.53;;;1.82;66.77
5609;BME280;2826;51.354;9.588;2023-01-28T08:57:36;99262.38;;;1.79;66.74
5609;BME280;2826;51.354;9.588;2023-01-28T09:00:03;99263.19;;;1.76;66.87
5609;BME280;2826;51.354;9.588;2023-01-28T09:02:54;99269.09;;;1.72;66.07
5609;BME280;2826;51.354;9.588;2023-01-28T09:05:21;99275.16;;;1.76;66.18
5609;BME280;2826;51.354;9.588;2023-01-28T09:07:47;99281.22;;;1.86;66.29
5609;BME280;2826;51.354;9.588;2023-01-28T09:10:15;99286.38;;;1.89;66.09
5609;BME280;2826;51.354;9.588;2023-01-28T09:12:42;99294.03;;;1.87;65.45
5609;BME280;2826;51.354;9.588;2023-01-28T09:15:09;99303.25;;;1.74;64.19
5609;BME280;2826;51.354;9.588;2023-01-28T09:17:36;99300.66;;;1.73;64.50
5609;BME280;2826;51.354;9.588;2023-01-28T09:20:06;99309.88;;;1.63;65.29
5609;BME280;2826;51.354;9.588;2023-01-28T09:22:32;99310.78;;;1.65;65.70
5609;BME280;2826;51.354;9.588;2023-01-28T09:24:59;99325.22;;;1.63;64.52
5609;BME280;2826;51.354;9.588;2023-01-28T09:27:26;99331.19;;;1.62;64.70
5609;BME280;2826;51.354;9.588;2023-01-28T09:29:52;99335.44;;;1.60;65.19
5609;BME280;2826;51.354;9.588;2023-01-28T09:32:19;99330.22;;;1.55;64.85
5609;BME280;2826;51.354;9.588;2023-01-28T09:34:46;99330.16;;;1.52;64.59
5609;BME280;2826;51.354;9.588;2023-01-28T09:37:13;99333.69;;;1.59;66.12
5609;BME280;2826;51.354;9.588;2023-01-28T09:39:40;99336.41;;;1.68;65.47
5609;BME280;2826;51.354;9.588;2023-01-28T09:42:21;99330.81;;;1.37;65.72
5609;BME280;2826;51.354;9.588;2023-01-28T09:45:00;99341.53;;;1.17;66.64
5609;BME280;2826;51.354;9.588;2023-01-28T09:47:33;99349.13;;;1.14;66.23
5609;BME280;2826;51.354;9.588;2023-01-28T09:50:04;99343.91;;;1.06;66.57
5609;BME280;2826;51.354;9.588;2023-01-28T09:52:35;99339.69;;;1.08;68.01
5609;BME280;2826;51.354;9.588;2023-01-28T09:55:09;99334.63;;;1.11;67.21
5609;BME280;2826;51.354;9.588;2023-01-28T09:57:45;99343.03;;;1.04;67.11
5609;BME280;2826;51.354;9.588;2023-01-28T10:00:14;99337.19;;;1.11;66.21
5609;BME280;2826;51.354;9.588;2023-01-28T10:02:54;99334.88;;;1.25;66.01
5609;BME280;2826;51.354;9.588;2023-01-28T10:05:30;99338.34;;;1.30;65.73
5609;BME280;2826;51.354;9.588;2023-01-28T10:08:06;99344.34;;;1.31;66.53
5609;BME280;2826;51.354;9.588;2023-01-28T10:10:41;99345.16;;;1.28;65.84
5609;BME280;2826;51.354;9.588;2023-01-28T10:13:22;99349.41;;;1.29;66.09
5609;BME280;2826;51.354;9.588;2023-01-28T10:15:57;99348.53;;;1.29;65.43
5609;BME280;2826;51.354;9.588;2023-01-28T10:18:31;99346.16;;;1.37;66.01
5609;BME280;2826;51.354;9.588;2023-01-28T10:21:04;99348.75;;;1.41;65.88
5609;BME280;2826;51.354;9.588;2023-01-28T10:23:38;99353.00;;;1.41;65.68
5609;BME280;2826;51.354;9.588;2023-01-28T10:26:18;99355.66;;;1.46;64.72
5609;BME280;2826;51.354;9.588;2023-01-28T10:28:52;99319.53;;;1.25;64.59
5609;BME280;2826;51.354;9.588;2023-01-28T10:31:20;99348.91;;;1.51;63.49
5609;BME280;2826;51.354;9.588;2023-01-28T10:33:47;99340.38;;;1.49;62.30
5609;BME280;2826;51.354;9.588;2023-01-28T10:36:13;99341.28;;;1.52;62.03
5609;BME280;2826;51.354;9.588;2023-01-28T10:38:43;99332.75;;;1.53;61.63
5609;BME280;2826;51.354;9.588;2023-01-28T10:41:16;99343.09;;;1.60;61.44
5609;BME280;2826;51.354;9.588;2023-01-28T10:43:48;99342.38;;;1.68;62.96
5609;BME280;2826;51.354;9.588;2023-01-28T10:46:18;99347.59;;;1.76;62.19
5609;BME280;2826;51.354;9.588;2023-01-28T10:48:47;99346.75;;;1.76;63.06
5609;BME280;2826;51.354;9.588;2023-01-28T10:51:29;99341.94;;;1.96;63.02
5609;BME280;2826;51.354;9.588;2023-01-28T10:53:56;99341.09;;;1.97;62.53
5609;BME280;2826;51.354;9.588;2023-01-28T10:56:24;99330.13;;;2.07;62.40
5609;BME280;2826;51.354;9.588;2023-01-28T10:58:56;99345.53;;;2.11;62.48
5609;BME280;2826;51.354;9.588;2023-01-28T11:01:37;99342.13;;;2.12;62.10
5609;BME280;2826;51.354;9.588;2023-01-28T11:04:04;99337.84;;;2.11;62.64
5609;BME280;2826;51.354;9.588;2023-01-28T11:06:31;99346.44;;;2.16;62.77
5609;BME280;2826;51.354;9.588;2023-01-28T11:08:59;99342.84;;;2.01;62.52
5609;BME280;2826;51.354;9.588;2023-01-28T11:11:27;99346.97;;;1.91;62.43
5609;BME280;2826;51.354;9.588;2023-01-28T11:13:54;99341.84;;;1.91;62.70
5609;BME280;2826;51.354;9.588;2023-01-28T11:16:23;99341.03;;;1.94;62.92
5609;BME280;2826;51.354;9.588;2023-01-28T11:18:52;99335.09;;;1.95;63.70
5609;BME280;2826;51.354;9.588;2023-01-28T11:21:21;99337.66;;;1.96;63.15
5609;BME280;2826;51.354;9.588;2023-01-28T11:23:51;99334.31;;;1.99;63.58
5609;BME280;2826;51.354;9.588;2023-01-28T11:26:23;99275.84;;;1.67;63.34
5609;BME280;2826;51.354;9.588;2023-01-28T11:28:50;99323.19;;;1.99;63.63
5609;BME280;2826;51.354;9.588;2023-01-28T11:31:19;99308.47;;;1.82;62.98
5609;BME280;2826;51.354;9.588;2023-01-28T11:33:49;99316.38;;;1.98;63.93
5609;BME280;2826;51.354;9.588;2023-01-28T11:36:17;99314.66;;;1.98;62.62
5609;BME280;2826;51.354;9.588;2023-01-28T11:38:49;99311.28;;;2.01;63.25
5609;BME280;2826;51.354;9.588;2023-01-28T11:41:17;99308.84;;;2.08;63.50
5609;BME280;2826;51.354;9.588;2023-01-28T11:43:45;99308.88;;;2.13;63.28
5609;BME280;2826;51.354;9.588;2023-01-28T11:46:25;99310.56;;;2.09;61.62
5609;BME280;2826;51.354;9.588;2023-01-28T11:49:03;99311.28;;;2.01;61.23
5609;BME280;2826;51.354;9.588;2023-01-28T11:51:36;99312.81;;;1.88;61.43
5609;BME280;2826;51.354;9.588;2023-01-28T11:54:18;99312.88;;;1.94;62.37
5609;BME280;2826;51.354;9.588;2023-01-28T11:57:00;99314.59;;;1.92;62.43
5609;BME280;2826;51.354;9.588;2023-01-28T11:59:45;99306.22;;;2.05;63.26
5609;BME280;2826;51.354;9.588;2023-01-28T12:02:30;99307.91;;;2.03;62.27
5609;BME280;2826;51.354;9.588;2023-01-28T12:05:11;99300.97;;;1.94;62.28
5609;BME280;2826;51.354;9.588;2023-01-28T12:07:45;99300.09;;;1.94;62.23
5609;BME280;2826;51.354;9.588;2023-01-28T12:10:19;99316.25;;;1.88;61.79
5609;BME280;2826;51.354;9.588;2023-01-28T12:12:59;99311.06;;;1.83;61.83
5609;BME280;2826;51.354;9.588;2023-01-28T12:15:52;99319.59;;;1.86;62.66
5609;BME280;2826;51.354;9.588;2023-01-28T12:18:35;99332.28;;;1.78;61.23
5609;BME280;2826;51.354;9.588;2023-01-28T12:21:06;99322.09;;;1.81;61.94
5609;BME280;2826;51.354;9.588;2023-01-28T12:23:47;99324.41;;;1.64;60.98
5609;BME280;2826;51.354;9.588;2023-01-28T12:26:25;99312.47;;;1.64;61.12
5609;BME280;2826;51.354;9.588;2023-01-28T12:29:07;99318.56;;;1.73;61.72
5609;BME280;2826;51.354;9.588;2023-01-28T12:31:48;99311.75;;;1.73;62.29
5609;BME280;2826;51.354;9.588;2023-01-28T12:34:44;99307.47;;;1.72;62.39
5609;BME280;2826;51.354;9.588;2023-01-28T12:37:22;99312.63;;;1.75;62.45
5609;BME280;2826;51.354;9.588;2023-01-28T12:40:02;99307.63;;;1.83;63.77
5609;BME280;2826;51.354;9.588;2023-01-28T12:42:35;99314.47;;;1.86;63.69
5609;BME280;2826;51.354;9.588;2023-01-28T12:45:12;99319.56;;;1.82;62.80
5609;BME280;2826;51.354;9.588;2023-01-28T12:47:47;99311.81;;;1.78;62.49
5609;BME280;2826;51.354;9.588;2023-01-28T12:50:20;99319.44;;;1.73;62.47
5609;BME280;2826;51.354;9.588;2023-01-28T12:52:51;99311.66;;;1.67;63.69
5609;BME280;2826;51.354;9.588;2023-01-28T12:55:29;99304.97;;;1.77;63.42
5609;BME280;2826;51.354;9.588;2023-01-28T12:58:01;99297.38;;;1.83;63.68
5609;BME280;2826;51.354;9.588;2023-01-28T13:00:31;99288.94;;;1.89;63.00
5609;BME280;2826;51.354;9.588;2023-01-28T13:03:14;99285.56;;;1.88;62.67
5609;BME280;2826;51.354;9.588;2023-01-28T13:05:48;99293.28;;;1.94;62.03
5609;BME280;2826;51.354;9.588;2023-01-28T13:08:18;99287.34;;;1.97;61.62
5609;BME280;2826;51.354;9.588;2023-01-28T13:10:49;99278.66;;;1.86;61.54
5609;BME280;2826;51.354;9.588;2023-01-28T13:13:24;99286.38;;;1.89;60.88
5609;BME280;2826;51.354;9.588;2023-01-28T13:15:53;99278.66;;;1.84;60.08
5609;BME280;2826;51.354;9.588;2023-01-28T13:18:33;99266.69;;;1.83;60.21
5609;BME280;2826;51.354;9.588;2023-01-28T13:21:00;99274.59;;;1.99;61.29
5609;BME280;2826;51.354;9.588;2023-01-28T13:23:36;99277.19;;;2.02;60.54
5609;BME280;2826;51.354;9.588;2023-01-28T13:26:10;99278.13;;;2.07;61.31
5609;BME280;2826;51.354;9.588;2023-01-28T13:28:36;99274.69;;;2.06;60.31
5609;BME280;2826;51.354;9.588;2023-01-28T13:31:04;99280.53;;;1.96;60.41
5609;BME280;2826;51.354;9.588;2023-01-28T13:33:34;99279.63;;;1.91;62.27
5609;BME280;2826;51.354;9.588;2023-01-28T13:36:04;99280.47;;;1.93;61.13
5609;BME280;2826;51.354;9.588;2023-01-28T13:38:34;99279.50;;;1.85;60.92
5609;BME280;2826;51.354;9.588;2023-01-28T13:41:01;99274.38;;;1.81;61.72
5609;BME280;2826;51.354;9.588;2023-01-28T13:43:35;99262.47;;;1.85;62.52
5609;BME280;2826;51.354;9.588;2023-01-28T13:46:06;99264.25;;;1.89;61.46
5609;BME280;2826;51.354;9.588;2023-01-28T13:48:39;99251.56;;;1.99;61.67
5609;BME280;2826;51.354;9.588;2023-01-28T13:51:18;99250.81;;;2.07;61.42
5609;BME280;2826;51.354;9.588;2023-01-28T13:53:49;99243.22;;;2.14;61.65
5609;BME280;2826;51.354;9.588;2023-01-28T13:56:21;99247.47;;;2.13;61.09